createdAt,value
2023-05-10T00:02:01.657Z,58.29
2023-05-10T00:04:32.316Z,58.59
2023-05-10T00:07:02.986Z,58.59
2023-05-10T00:09:33.327Z,58.86
2023-05-10T00:12:03.582Z,58.73
2023-05-10T00:14:34.264Z,58.74
2023-05-10T00:17:04.477Z,58.93
2023-05-10T00:19:34.748Z,58.88
2023-05-10T00:22:05.089Z,58.68
2023-05-10T00:24:35.361Z,58.78
2023-05-10T00:27:06.212Z,58.79
2023-05-10T00:29:36.572Z,58.89
2023-05-10T00:32:10.723Z,59.03
2023-05-10T00:34:41.322Z,59.14
2023-05-10T00:37:11.680Z,59.11
2023-05-10T00:39:42.289Z,59.07
2023-05-10T00:42:12.897Z,59.20
2023-05-10T00:44:43.127Z,59.13
2023-05-10T00:47:13.605Z,59.23
2023-05-10T00:49:44.253Z,59.11
2023-05-10T00:52:14.527Z,59.00
2023-05-10T00:54:45.008Z,59.15
2023-05-10T00:57:15.623Z,59.19
2023-05-10T00:59:46.338Z,59.35
2023-05-10T01:02:17.397Z,59.30
2023-05-10T01:04:48.436Z,59.24
2023-05-10T01:07:18.976Z,59.28
2023-05-10T01:09:49.638Z,59.24
2023-05-10T01:12:20.276Z,59.38
2023-05-10T01:14:50.886Z,59.36
2023-05-10T01:17:21.879Z,59.51
2023-05-10T01:19:52.285Z,59.82
2023-05-10T01:22:45.367Z,59.78
2023-05-10T01:25:28.467Z,59.74
2023-05-10T01:28:16.276Z,59.79
2023-05-10T01:31:13.326Z,59.69
2023-05-10T01:33:49.941Z,59.79
2023-05-10T01:36:27.869Z,59.79
2023-05-10T01:39:04.595Z,59.66
2023-05-10T01:41:37.590Z,59.49
2023-05-10T01:44:14.638Z,59.64
2023-05-10T01:46:43.841Z,59.50
2023-05-10T01:49:20.769Z,59.39
2023-05-10T01:51:55.828Z,59.47
2023-05-10T01:54:27.390Z,59.24
2023-05-10T01:57:04.220Z,59.15
2023-05-10T01:59:37.295Z,59.21
2023-05-10T02:02:08.777Z,59.24
2023-05-10T02:04:40.482Z,59.18
2023-05-10T02:07:12.412Z,59.00
2023-05-10T02:09:43.801Z,59.14
2023-05-10T02:12:16.217Z,58.95
2023-05-10T02:14:48.473Z,58.92
2023-05-10T02:17:20.729Z,59.00
2023-05-10T02:19:51.226Z,59.03
2023-05-10T02:22:22.297Z,58.84
2023-05-10T02:24:53.184Z,58.88
2023-05-10T02:27:24.004Z,58.86
2023-05-10T02:29:55.133Z,58.67
2023-05-10T02:32:26.925Z,58.69
2023-05-10T02:34:57.621Z,58.58
2023-05-10T02:37:28.571Z,58.49
2023-05-10T02:39:59.705Z,58.11
2023-05-10T02:42:30.756Z,57.55
2023-05-10T02:45:04.460Z,56.30
2023-05-10T02:47:35.028Z,54.78
2023-05-10T02:50:06.272Z,53.08
2023-05-10T02:52:42.173Z,51.13
2023-05-10T02:55:15.803Z,49.27
2023-05-10T02:57:49.789Z,47.28
2023-05-10T03:00:20.627Z,45.40
2023-05-10T03:02:51.406Z,43.70
2023-05-10T03:05:23.033Z,42.13
2023-05-10T03:07:53.666Z,40.43
2023-05-10T03:10:26.418Z,39.08
2023-05-10T03:13:08.827Z,37.21
2023-05-10T03:15:49.899Z,35.96
2023-05-10T03:18:23.428Z,34.49
2023-05-10T03:20:58.508Z,33.59
2023-05-10T03:23:32.551Z,33.26
2023-05-10T03:26:03.317Z,32.32
2023-05-10T03:28:34.830Z,31.22
2023-05-10T03:31:05.532Z,29.98
2023-05-10T03:33:36.178Z,29.13
2023-05-10T03:36:08.366Z,28.50
2023-05-10T03:38:38.906Z,27.99
2023-05-10T03:41:09.181Z,26.96
2023-05-10T03:43:39.589Z,26.13
2023-05-10T03:46:10.332Z,25.03
2023-05-10T03:48:40.553Z,24.48
2023-05-10T03:51:10.999Z,24.75
2023-05-10T03:53:41.652Z,24.07
2023-05-10T03:56:14.381Z,23.61
2023-05-10T03:58:44.794Z,22.85
2023-05-10T04:01:16.716Z,22.05
2023-05-10T04:03:47.728Z,21.28
2023-05-10T04:06:18.206Z,20.64
2023-05-10T04:08:48.936Z,19.54
2023-05-10T04:11:19.077Z,19.72
2023-05-10T04:13:49.511Z,19.04
2023-05-10T04:16:19.996Z,18.40
2023-05-10T04:18:50.324Z,18.32
2023-05-10T04:21:20.505Z,18.15
2023-05-10T04:23:50.753Z,17.31
2023-05-10T04:26:21.115Z,16.54
2023-05-10T04:28:52.049Z,16.03
2023-05-10T04:31:22.463Z,15.78
2023-05-10T04:33:53.075Z,15.58
2023-05-10T04:36:23.352Z,15.98
2023-05-10T04:38:54.051Z,16.85
2023-05-10T04:41:24.964Z,17.06
2023-05-10T04:43:55.221Z,17.75
2023-05-10T04:46:25.683Z,17.45
2023-05-10T04:48:56.015Z,16.73
2023-05-10T04:51:26.638Z,16.47
2023-05-10T04:54:06.214Z,15.74
2023-05-10T04:56:37.723Z,16.22
2023-05-10T04:59:07.914Z,16.83
2023-05-10T05:01:38.407Z,16.83
2023-05-10T05:04:08.896Z,16.36
2023-05-10T05:06:39.176Z,15.44
2023-05-10T05:09:10.902Z,15.52
2023-05-10T05:11:41.370Z,14.83
2023-05-10T05:14:12.434Z,14.53
2023-05-10T05:16:43.243Z,14.39
2023-05-10T05:19:13.948Z,14.07
2023-05-10T05:21:44.252Z,13.75
2023-05-10T05:24:14.656Z,13.36
2023-05-10T05:26:45.592Z,13.58
2023-05-10T05:29:17.267Z,13.72
2023-05-10T05:31:49.966Z,13.91
2023-05-10T05:34:22.208Z,13.53
2023-05-10T05:36:52.447Z,13.23
2023-05-10T05:39:23.474Z,13.25
2023-05-10T05:41:54.060Z,13.44
2023-05-10T05:44:24.474Z,14.17
2023-05-10T05:46:58.722Z,14.49
2023-05-10T05:49:32.184Z,15.01
2023-05-10T05:52:03.054Z,15.20
2023-05-10T05:54:33.784Z,14.34
2023-05-10T05:57:04.136Z,13.53
2023-05-10T05:59:34.496Z,12.96
2023-05-10T06:02:05.244Z,12.42
2023-05-10T06:04:35.922Z,12.40
2023-05-10T06:07:06.637Z,12.27
2023-05-10T06:09:37.249Z,11.63
2023-05-10T06:12:07.937Z,10.80
2023-05-10T06:14:38.173Z,10.33
2023-05-10T06:17:09.059Z,10.13
2023-05-10T06:19:39.771Z,10.63
2023-05-10T06:22:10.313Z,10.84
2023-05-10T06:24:40.693Z,11.15
2023-05-10T06:27:11.008Z,11.22
2023-05-10T06:29:41.110Z,11.65
2023-05-10T06:32:11.310Z,11.33
2023-05-10T06:34:41.722Z,11.33
2023-05-10T06:37:12.071Z,10.91
2023-05-10T06:39:42.345Z,10.49
2023-05-10T06:42:12.781Z,10.56
2023-05-10T06:44:44.242Z,10.86
2023-05-10T06:47:14.498Z,11.16
2023-05-10T06:49:44.983Z,10.87
2023-05-10T06:52:15.400Z,10.55
2023-05-10T06:54:45.845Z,10.44
2023-05-10T06:57:27.718Z,10.32
2023-05-10T07:00:01.761Z,10.58
2023-05-10T07:02:32.689Z,10.49
2023-05-10T07:05:06.119Z,10.14
2023-05-10T07:07:39.197Z,10.12
2023-05-10T07:10:11.980Z,11.54
2023-05-10T07:12:42.569Z,12.57
2023-05-10T07:15:13.727Z,13.79
2023-05-10T07:17:45.902Z,14.86
2023-05-10T07:20:16.874Z,16.20
2023-05-10T07:22:47.211Z,16.64
2023-05-10T07:25:17.827Z,17.26
2023-05-10T07:27:49.188Z,18.10
2023-05-10T07:30:19.903Z,18.95
2023-05-10T07:32:50.217Z,19.30
2023-05-10T07:35:20.972Z,20.29
2023-05-10T07:37:51.133Z,20.82
2023-05-10T07:40:22.040Z,21.10
2023-05-10T07:42:52.612Z,22.02
2023-05-10T07:45:24.000Z,22.61
2023-05-10T07:47:54.834Z,23.42
2023-05-10T07:50:25.339Z,23.74
2023-05-10T07:52:56.170Z,23.68
2023-05-10T07:55:26.914Z,24.38
2023-05-10T07:57:57.146Z,24.78
2023-05-10T08:00:27.309Z,25.10
2023-05-10T08:02:57.611Z,25.19
2023-05-10T08:05:28.269Z,25.44
2023-05-10T08:08:00.185Z,25.79
2023-05-10T08:10:30.743Z,25.66
2023-05-10T08:13:01.382Z,25.97
2023-05-10T08:15:31.531Z,26.46
2023-05-10T08:18:01.996Z,26.44
2023-05-10T08:20:32.838Z,26.64
2023-05-10T08:23:03.216Z,26.95
2023-05-10T08:25:33.878Z,27.35
2023-05-10T08:28:04.753Z,27.54
2023-05-10T08:30:35.023Z,27.80
2023-05-10T08:33:05.904Z,27.95
2023-05-10T08:35:36.459Z,28.34
2023-05-10T08:38:06.665Z,28.42
2023-05-10T08:40:37.725Z,28.77
2023-05-10T08:43:10.575Z,28.94
2023-05-10T08:45:42.712Z,29.27
2023-05-10T08:48:13.486Z,29.46
2023-05-10T08:50:44.228Z,29.68
2023-05-10T08:53:15.299Z,29.35
2023-05-10T08:55:45.742Z,29.33
2023-05-10T08:58:16.368Z,29.26
2023-05-10T09:00:46.892Z,29.74
2023-05-10T09:03:17.148Z,30.03
2023-05-10T09:05:47.522Z,30.39
2023-05-10T09:08:18.111Z,30.43
2023-05-10T09:10:48.620Z,30.94
2023-05-10T09:13:19.943Z,30.88
2023-05-10T09:15:51.195Z,30.99
2023-05-10T09:18:21.698Z,31.07
2023-05-10T09:20:52.030Z,31.47
2023-05-10T09:23:23.004Z,31.64
2023-05-10T09:26:06.901Z,31.64
2023-05-10T09:28:51.337Z,31.55
2023-05-10T09:31:21.816Z,31.39
2023-05-10T09:33:53.169Z,31.04
2023-05-10T09:36:23.487Z,31.03
2023-05-10T09:38:56.925Z,31.25
2023-05-10T09:41:27.448Z,31.26
2023-05-10T09:43:59.118Z,31.11
2023-05-10T09:46:29.416Z,30.80
2023-05-10T09:48:59.783Z,30.60
2023-05-10T09:51:30.323Z,30.75
2023-05-10T09:54:13.265Z,30.59
2023-05-10T09:56:43.913Z,30.65
2023-05-10T09:59:14.643Z,30.07
2023-05-10T10:01:46.325Z,30.26
2023-05-10T10:04:17.244Z,31.00
2023-05-10T10:06:48.159Z,31.20
2023-05-10T10:09:19.382Z,31.46
2023-05-10T10:11:49.589Z,31.36
2023-05-10T10:14:22.057Z,31.03
2023-05-10T10:17:06.644Z,30.48
2023-05-10T10:19:40.826Z,30.39
2023-05-10T10:22:12.629Z,30.42
2023-05-10T10:24:43.674Z,30.51
2023-05-10T10:27:21.622Z,30.02
2023-05-10T10:30:02.230Z,29.94
2023-05-10T10:32:49.899Z,29.93
2023-05-10T10:35:20.469Z,30.15
2023-05-10T10:37:52.821Z,30.04
2023-05-10T10:40:31.889Z,29.71
2023-05-10T10:43:25.596Z,28.90
2023-05-10T10:46:15.913Z,29.42
2023-05-10T10:48:52.402Z,30.02
2023-05-10T10:51:22.746Z,30.25
2023-05-10T10:53:52.970Z,30.00
2023-05-10T10:56:25.021Z,29.05
2023-05-10T10:58:57.951Z,28.99
2023-05-10T11:01:35.909Z,28.80
2023-05-10T11:04:21.666Z,28.63
2023-05-10T11:06:52.080Z,28.66
2023-05-10T11:09:27.487Z,28.47
2023-05-10T11:11:59.133Z,27.81
2023-05-10T11:14:29.322Z,27.38
2023-05-10T11:16:59.514Z,27.54
2023-05-10T11:19:31.282Z,27.80
2023-05-10T11:22:15.800Z,28.30
2023-05-10T11:24:59.673Z,28.24
2023-05-10T11:27:29.951Z,28.63
2023-05-10T11:30:00.313Z,28.75
2023-05-10T11:32:30.795Z,28.89
2023-05-10T11:35:01.103Z,28.36
2023-05-10T11:37:35.172Z,28.32
2023-05-10T11:40:06.650Z,28.44
2023-05-10T11:42:36.960Z,28.66
2023-05-10T11:45:09.810Z,29.03
2023-05-10T11:47:42.637Z,28.91
2023-05-10T11:50:15.429Z,29.73
2023-05-10T11:52:46.493Z,29.36
2023-05-10T11:55:16.719Z,29.09
2023-05-10T11:57:47.367Z,29.23
2023-05-10T12:00:18.503Z,28.64
2023-05-10T12:02:51.668Z,28.73
2023-05-10T12:05:23.245Z,28.50
2023-05-10T12:07:53.489Z,27.95
2023-05-10T12:10:28.752Z,27.75
2023-05-10T12:12:59.458Z,27.89
2023-05-10T12:15:30.929Z,27.48
2023-05-10T12:18:02.038Z,27.45
2023-05-10T12:20:32.645Z,27.75
2023-05-10T12:23:04.620Z,27.57
2023-05-10T12:25:36.647Z,27.88
2023-05-10T12:28:09.229Z,27.92
2023-05-10T12:30:39.882Z,27.87
2023-05-10T12:33:15.407Z,28.25
2023-05-10T12:35:50.166Z,28.41
2023-05-10T12:38:31.939Z,28.62
2023-05-10T12:41:04.382Z,28.98
2023-05-10T12:43:35.047Z,29.18
2023-05-10T12:46:10.240Z,29.42
2023-05-10T12:48:41.803Z,29.40
2023-05-10T12:51:14.041Z,29.84
2023-05-10T12:53:48.734Z,29.59
2023-05-10T12:56:19.798Z,29.75
2023-05-10T12:58:49.963Z,29.96
2023-05-10T13:01:20.362Z,29.80
2023-05-10T13:03:51.316Z,29.72
2023-05-10T13:06:21.501Z,29.76
2023-05-10T13:08:52.486Z,30.23
2023-05-10T13:11:23.071Z,30.58
2023-05-10T13:13:53.336Z,30.58
2023-05-10T13:16:24.293Z,30.86
2023-05-10T13:18:55.683Z,30.81
2023-05-10T13:21:27.791Z,30.85
2023-05-10T13:23:59.507Z,30.94
2023-05-10T13:26:31.238Z,31.25
2023-05-10T13:29:01.718Z,31.40
2023-05-10T13:31:32.038Z,31.36
2023-05-10T13:34:02.413Z,31.69
2023-05-10T13:36:34.356Z,31.75
2023-05-10T13:39:05.992Z,31.66
2023-05-10T13:41:42.526Z,31.52
2023-05-10T13:44:15.896Z,31.11
2023-05-10T13:46:52.634Z,30.90
2023-05-10T13:49:30.553Z,30.98
2023-05-10T13:52:37.212Z,30.79
2023-05-10T13:55:08.724Z,30.72
2023-05-10T13:57:51.818Z,30.75
2023-05-10T14:00:32.876Z,31.08
2023-05-10T14:03:17.123Z,31.17
2023-05-10T14:05:52.301Z,31.15
2023-05-10T14:08:23.248Z,31.24
2023-05-10T14:11:08.200Z,31.81
2023-05-10T14:13:42.481Z,31.74
2023-05-10T14:16:25.412Z,32.31
2023-05-10T14:18:56.948Z,32.25
2023-05-10T14:21:28.724Z,32.72
2023-05-10T14:23:58.926Z,32.98
2023-05-10T14:26:29.643Z,33.16
2023-05-10T14:29:00.121Z,33.45
2023-05-10T14:31:31.799Z,33.53
2023-05-10T14:34:02.417Z,34.06
2023-05-10T14:36:33.015Z,34.13
2023-05-10T14:39:03.993Z,34.54
2023-05-10T14:41:36.638Z,34.45
2023-05-10T14:44:07.325Z,34.60
2023-05-10T14:46:37.502Z,34.98
2023-05-10T14:49:08.757Z,35.25
2023-05-10T14:51:39.073Z,35.63
2023-05-10T14:56:56.841Z,36.21
2023-05-10T14:59:30.194Z,36.29
2023-05-10T15:02:01.247Z,36.46
2023-05-10T15:05:03.346Z,36.76
2023-05-10T15:07:34.768Z,37.03
2023-05-10T15:10:06.715Z,37.19
2023-05-10T15:12:37.029Z,37.27
2023-05-10T15:15:10.682Z,37.61
2023-05-10T15:17:42.478Z,37.64
2023-05-10T15:20:17.759Z,37.70
2023-05-10T15:22:54.399Z,38.01
2023-05-10T15:25:38.749Z,37.99
2023-05-10T15:28:13.501Z,38.42
2023-05-10T15:30:45.882Z,38.56
2023-05-10T15:33:18.186Z,38.62
2023-05-10T15:35:48.955Z,38.45
2023-05-10T15:38:19.598Z,38.72
2023-05-10T15:40:50.205Z,38.75
2023-05-10T15:43:21.879Z,38.87
2023-05-10T15:45:52.393Z,38.93
2023-05-10T15:48:23.836Z,39.34
2023-05-10T15:50:54.143Z,39.39
2023-05-10T15:53:28.288Z,39.71
2023-05-10T15:56:00.383Z,40.06
2023-05-10T15:58:33.854Z,41.91
2023-05-10T16:01:08.959Z,42.58
2023-05-10T16:03:40.008Z,43.33
2023-05-10T16:06:11.114Z,43.60
2023-05-10T16:08:46.367Z,44.00
2023-05-10T16:11:16.737Z,44.57
2023-05-10T16:13:49.678Z,44.46
2023-05-10T16:16:20.030Z,44.79
2023-05-10T16:18:51.305Z,44.72
2023-05-10T16:21:24.318Z,45.08
2023-05-10T16:23:54.845Z,45.31
2023-05-10T16:26:25.392Z,45.36
2023-05-10T16:28:55.870Z,45.58
2023-05-10T16:31:26.217Z,45.71
2023-05-10T16:33:56.989Z,46.39
2023-05-10T16:36:27.533Z,48.36
2023-05-10T16:38:58.221Z,50.22
2023-05-10T16:41:29.007Z,51.67
2023-05-10T16:43:59.271Z,52.30
2023-05-10T16:46:29.680Z,53.41
2023-05-10T16:49:00.585Z,53.86
2023-05-10T16:51:31.371Z,54.63
2023-05-10T16:54:02.441Z,55.64
2023-05-10T16:56:33.281Z,56.26
2023-05-10T16:59:05.791Z,56.11
2023-05-10T17:01:37.449Z,56.48
2023-05-10T17:04:07.772Z,56.70
2023-05-10T17:06:38.380Z,57.02
2023-05-10T17:09:09.020Z,57.28
2023-05-10T17:11:39.494Z,57.13
2023-05-10T17:14:10.298Z,57.29
2023-05-10T17:16:40.693Z,57.71
2023-05-10T17:19:11.270Z,58.08
2023-05-10T17:21:41.854Z,58.43
2023-05-10T17:24:12.703Z,58.69
2023-05-10T17:26:42.946Z,58.98
2023-05-10T17:29:13.823Z,59.38
2023-05-10T17:31:44.427Z,59.45
2023-05-10T17:34:16.055Z,59.60
2023-05-10T17:36:46.587Z,59.90
2023-05-10T17:39:16.745Z,59.75
2023-05-10T17:41:47.028Z,60.00
2023-05-10T17:44:17.283Z,59.97
2023-05-10T17:46:48.044Z,60.02
2023-05-10T17:49:18.408Z,60.33
2023-05-10T17:51:48.693Z,60.35
2023-05-10T17:54:18.766Z,60.40
2023-05-10T17:56:49.486Z,60.48
2023-05-10T17:59:20.118Z,60.53
2023-05-10T18:01:50.374Z,60.39
2023-05-10T18:04:20.946Z,60.18
2023-05-10T18:06:51.368Z,60.28
2023-05-10T18:09:24.143Z,59.85
2023-05-10T18:11:54.810Z,59.72
2023-05-10T18:14:36.536Z,59.58
2023-05-10T18:17:10.262Z,59.74
2023-05-10T18:19:41.134Z,59.88
2023-05-10T18:22:12.491Z,59.95
2023-05-10T18:24:46.685Z,60.19
2023-05-10T18:27:17.597Z,60.61
2023-05-10T18:29:48.237Z,60.95
2023-05-10T18:32:18.692Z,61.48
2023-05-10T18:34:49.088Z,61.61
2023-05-10T18:37:20.001Z,61.72
2023-05-10T18:39:50.433Z,62.22
2023-05-10T18:42:27.488Z,63.13
2023-05-10T18:44:58.698Z,63.77
2023-05-10T18:47:31.101Z,64.16
2023-05-10T18:50:06.042Z,64.85
2023-05-10T18:52:37.566Z,65.18
2023-05-10T18:55:10.133Z,65.57
2023-05-10T18:57:41.777Z,65.80
2023-05-10T19:00:14.360Z,65.82
2023-05-10T19:02:46.424Z,65.93
2023-05-10T19:05:20.023Z,66.03
2023-05-10T19:07:57.111Z,66.13
2023-05-10T19:10:32.502Z,66.09
2023-05-10T19:13:03.836Z,66.29
2023-05-10T19:15:34.519Z,66.53
2023-05-10T19:18:07.974Z,66.40
2023-05-10T19:20:40.859Z,66.16
2023-05-10T19:23:17.266Z,66.40
2023-05-10T19:25:47.888Z,66.62
2023-05-10T19:28:30.432Z,66.69
2023-05-10T19:31:10.939Z,66.53
2023-05-10T19:33:41.701Z,66.67
2023-05-10T19:36:15.485Z,66.74
2023-05-10T19:38:53.710Z,66.24
2023-05-10T19:41:28.195Z,65.94
2023-05-10T19:44:01.390Z,65.99
2023-05-10T19:46:34.722Z,66.08
2023-05-10T19:49:07.668Z,66.62
2023-05-10T19:51:43.542Z,66.60
2023-05-10T19:54:25.422Z,66.32
2023-05-10T19:57:01.575Z,66.85
2023-05-10T19:59:37.355Z,66.51
2023-05-10T20:02:10.668Z,66.40
2023-05-10T20:04:44.579Z,65.74
2023-05-10T20:07:25.488Z,65.59
2023-05-10T20:10:00.117Z,65.16
2023-05-10T20:12:49.632Z,65.26
2023-05-10T20:15:22.741Z,65.40
2023-05-10T20:17:56.170Z,65.01
2023-05-10T20:20:27.689Z,64.55
2023-05-10T20:22:58.346Z,64.29
2023-05-10T20:25:31.226Z,64.03
2023-05-10T20:28:05.494Z,64.00
2023-05-10T20:30:36.429Z,63.99
2023-05-10T20:33:06.805Z,64.13
2023-05-10T20:35:37.122Z,64.07
2023-05-10T20:38:08.702Z,64.29
2023-05-10T20:40:39.703Z,63.98
2023-05-10T20:43:10.145Z,63.85
2023-05-10T20:45:40.621Z,63.70
2023-05-10T20:48:10.969Z,63.64
2023-05-10T20:50:44.383Z,63.61
2023-05-10T20:53:21.141Z,63.63
2023-05-10T20:55:51.737Z,63.73
2023-05-10T20:58:22.300Z,63.63
2023-05-10T21:00:52.696Z,63.96
2023-05-10T21:03:22.914Z,64.04
2023-05-10T21:05:53.626Z,63.83
2023-05-10T21:08:24.012Z,63.74
2023-05-10T21:10:55.862Z,63.71
2023-05-10T21:13:26.244Z,63.79
2023-05-10T21:15:57.417Z,63.62
2023-05-10T21:18:30.232Z,63.38
2023-05-10T21:21:06.761Z,63.28
2023-05-10T21:23:37.792Z,63.31
2023-05-10T21:26:13.811Z,62.87
2023-05-10T21:28:47.034Z,62.98
2023-05-10T21:31:18.360Z,62.95
2023-05-10T21:33:49.284Z,63.11
2023-05-10T21:36:24.635Z,62.95
2023-05-10T21:39:04.469Z,62.95
2023-05-10T21:41:38.461Z,63.04
2023-05-10T21:44:11.276Z,62.95
2023-05-10T21:46:43.963Z,63.15
2023-05-10T21:49:16.354Z,62.75
2023-05-10T21:51:48.556Z,62.69
2023-05-10T21:54:19.809Z,62.66
2023-05-10T21:56:50.471Z,62.50
2023-05-10T21:59:22.045Z,62.33
2023-05-10T22:01:54.609Z,62.27
2023-05-10T22:04:25.518Z,62.09
2023-05-10T22:06:56.329Z,62.27
2023-05-10T22:09:28.579Z,62.20
2023-05-10T22:11:59.473Z,62.26
2023-05-10T22:14:30.816Z,62.38
2023-05-10T22:17:01.798Z,62.48
2023-05-10T22:19:32.295Z,62.24
2023-05-10T22:22:03.203Z,62.15
2023-05-10T22:24:33.732Z,62.26
2023-05-10T22:27:06.569Z,62.24
2023-05-10T22:29:40.518Z,62.34
2023-05-10T22:32:15.801Z,62.29
2023-05-10T22:34:46.285Z,62.28
2023-05-10T22:37:17.603Z,62.38
2023-05-10T22:39:48.204Z,62.27
2023-05-10T22:42:18.727Z,62.17
2023-05-10T22:44:48.922Z,62.14
2023-05-10T22:47:19.376Z,62.06
2023-05-10T22:49:49.614Z,61.89
2023-05-10T22:52:19.940Z,61.86
2023-05-10T22:54:50.851Z,61.90
2023-05-10T22:57:21.198Z,61.82
2023-05-10T22:59:52.103Z,61.76
2023-05-10T23:02:23.030Z,61.82
2023-05-10T23:04:54.568Z,61.87
2023-05-10T23:07:25.848Z,61.82
2023-05-10T23:09:56.755Z,61.87
2023-05-10T23:12:27.372Z,61.81
2023-05-10T23:14:57.895Z,61.78
2023-05-10T23:17:28.255Z,61.60
2023-05-10T23:19:59.437Z,61.49
2023-05-10T23:22:30.214Z,61.59
2023-05-10T23:25:01.333Z,61.50
2023-05-10T23:27:35.159Z,61.39
2023-05-10T23:30:07.914Z,61.53
2023-05-10T23:32:39.440Z,61.29
2023-05-10T23:35:12.129Z,61.27
2023-05-10T23:37:43.041Z,61.15
2023-05-10T23:40:15.398Z,61.05
2023-05-10T23:42:46.409Z,61.10
2023-05-10T23:45:16.770Z,60.98
2023-05-10T23:47:47.175Z,60.76
2023-05-10T23:50:18.164Z,60.81
2023-05-10T23:52:48.803Z,60.86
2023-05-10T23:55:19.350Z,60.69
2023-05-10T23:57:49.823Z,60.52
